createdAt,value
2023-04-10T00:01:36.384Z,100789.34
2023-04-10T00:04:05.060Z,100789.34
2023-04-10T00:06:33.728Z,100798.25
2023-04-10T00:09:01.963Z,100781.97
2023-04-10T00:11:31.043Z,100788.50
2023-04-10T00:13:59.265Z,100780.44
2023-04-10T00:16:27.686Z,100768.84
2023-04-10T00:18:57.180Z,100769.69
2023-04-10T00:21:25.270Z,100760.78
2023-04-10T00:23:53.526Z,100752.56
2023-04-10T00:26:23.922Z,100754.97
2023-04-10T00:28:52.017Z,100752.13
2023-04-10T00:31:20.212Z,100749.44
2023-04-10T00:33:49.505Z,100741.06
2023-04-10T00:36:20.007Z,100739.97
2023-04-10T00:38:49.864Z,100735.16
2023-04-10T00:41:19.034Z,100732.13
2023-04-10T00:43:47.080Z,100722.25
2023-04-10T00:46:15.390Z,100720.25
2023-04-10T00:48:43.684Z,100716.28
2023-04-10T00:51:13.717Z,100716.88
2023-04-10T00:53:43.369Z,100714.03
2023-04-10T00:56:11.493Z,100710.34
2023-04-10T00:58:39.945Z,100707.81
2023-04-10T01:01:08.927Z,100706.25
2023-04-10T01:03:37.852Z,100703.88
2023-04-10T01:06:13.889Z,100697.66
2023-04-10T01:08:54.805Z,100704.16
2023-04-10T01:11:31.075Z,100705.00
2023-04-10T01:14:07.586Z,100699.25
2023-04-10T01:16:44.520Z,100705.31
2023-04-10T01:19:26.137Z,100695.03
2023-04-10T01:21:56.183Z,100702.94
2023-04-10T01:24:43.235Z,100689.66
2023-04-10T01:27:18.746Z,100698.84
2023-04-10T01:29:57.830Z,100699.00
2023-04-10T01:32:26.857Z,100698.16
2023-04-10T01:34:58.773Z,100698.16
2023-04-10T01:37:36.439Z,100706.66
2023-04-10T01:40:07.384Z,100711.88
2023-04-10T01:42:40.402Z,100709.34
2023-04-10T01:45:13.638Z,100696.03
2023-04-10T01:47:41.807Z,100698.72
2023-04-10T01:50:11.271Z,100693.34
2023-04-10T01:52:39.591Z,100681.75
2023-04-10T01:55:10.296Z,100669.50
2023-04-10T01:57:38.438Z,100671.44
2023-04-10T02:00:07.885Z,100669.78
2023-04-10T02:02:38.726Z,100668.47
2023-04-10T02:05:07.529Z,100656.19
2023-04-10T02:07:46.718Z,100656.34
2023-04-10T02:10:21.507Z,100655.34
2023-04-10T02:12:55.772Z,100653.81
2023-04-10T02:15:25.488Z,100655.94
2023-04-10T02:17:57.493Z,100658.34
2023-04-10T02:20:26.722Z,100653.50
2023-04-10T02:22:55.742Z,100645.59
2023-04-10T02:25:23.898Z,100648.28
2023-04-10T02:27:52.026Z,100644.59
2023-04-10T02:30:20.172Z,100629.88
2023-04-10T02:32:48.436Z,100618.28
2023-04-10T02:35:18.240Z,100604.66
2023-04-10T02:37:47.747Z,100606.53
2023-04-10T02:40:15.888Z,100600.84
2023-04-10T02:42:44.231Z,100595.66
2023-04-10T02:45:12.840Z,100600.84
2023-04-10T02:47:41.557Z,100593.63
2023-04-10T02:50:10.982Z,100577.34
2023-04-10T02:52:40.861Z,100579.19
2023-04-10T02:55:09.474Z,100572.13
2023-04-10T02:57:37.637Z,100566.75
2023-04-10T03:00:06.646Z,100565.09
2023-04-10T03:02:40.053Z,100570.13
2023-04-10T03:05:09.569Z,100563.06
2023-04-10T03:07:38.443Z,100561.09
2023-04-10T03:10:09.572Z,100554.88
2023-04-10T03:12:37.705Z,100548.34
2023-04-10T03:15:08.131Z,100535.75
2023-04-10T03:17:36.317Z,100536.47
2023-04-10T03:20:04.885Z,100530.06
2023-04-10T03:22:33.231Z,100540.66
2023-04-10T03:25:01.700Z,100541.50
2023-04-10T03:27:35.175Z,100541.50
2023-04-10T03:30:04.005Z,100541.66
2023-04-10T03:32:32.466Z,100537.13
2023-04-10T03:35:00.859Z,100531.75
2023-04-10T03:37:32.223Z,100529.06
2023-04-10T03:40:00.583Z,100525.38
2023-04-10T03:42:28.724Z,100519.16
2023-04-10T03:44:58.696Z,100522.84
2023-04-10T03:47:27.473Z,100520.84
2023-04-10T03:49:56.542Z,100522.53
2023-04-10T03:52:25.297Z,100525.38
2023-04-10T03:54:53.779Z,100515.47
2023-04-10T03:57:21.972Z,100523.41
2023-04-10T03:59:51.955Z,100512.66
2023-04-10T04:02:22.974Z,100507.13
2023-04-10T04:04:51.724Z,100512.31
2023-04-10T04:07:20.003Z,100509.19
2023-04-10T04:09:50.265Z,100504.63
2023-04-10T04:12:18.218Z,100501.81
2023-04-10T04:14:46.659Z,100498.13
2023-04-10T04:17:15.233Z,100493.97
2023-04-10T04:19:44.784Z,100493.81
2023-04-10T04:22:13.548Z,100493.81
2023-04-10T04:24:41.724Z,100495.47
2023-04-10T04:27:10.261Z,100507.13
2023-04-10T04:29:39.921Z,100499.72
2023-04-10T04:32:17.465Z,100500.88
2023-04-10T04:34:48.666Z,100489.44
2023-04-10T04:37:17.442Z,100491.56
2023-04-10T04:39:46.002Z,100484.53
2023-04-10T04:42:14.154Z,100480.31
2023-04-10T04:44:42.231Z,100476.75
2023-04-10T04:47:10.662Z,100475.06
2023-04-10T04:49:40.931Z,100466.50
2023-04-10T04:52:54.047Z,100469.47
2023-04-10T04:55:27.444Z,100463.41
2023-04-10T04:58:19.956Z,100463.41
2023-04-10T05:00:49.201Z,100479.53
2023-04-10T05:03:18.052Z,100479.53
2023-04-10T05:05:47.653Z,100471.31
2023-04-10T05:08:16.517Z,100463.56
2023-04-10T05:10:47.084Z,100453.66
2023-04-10T05:13:16.046Z,100460.03
2023-04-10T05:15:45.005Z,100461.41
2023-04-10T05:18:14.278Z,100455.19
2023-04-10T05:20:45.558Z,100458.72
2023-04-10T05:23:14.243Z,100451.50
2023-04-10T05:25:42.478Z,100449.66
2023-04-10T05:28:12.301Z,100440.09
2023-04-10T05:30:40.558Z,100445.59
2023-04-10T05:33:09.086Z,100439.91
2023-04-10T05:35:37.496Z,100445.28
2023-04-10T05:38:05.578Z,100442.44
2023-04-10T05:40:33.786Z,100438.22
2023-04-10T05:43:02.099Z,100438.22
2023-04-10T05:45:31.562Z,100431.16
2023-04-10T05:47:59.587Z,100436.22
2023-04-10T05:50:28.687Z,100436.22
2023-04-10T05:52:58.676Z,100432.53
2023-04-10T05:55:26.616Z,100432.22
2023-04-10T05:57:54.678Z,100436.59
2023-04-10T06:00:22.658Z,100450.03
2023-04-10T06:02:52.812Z,100449.41
2023-04-10T06:05:21.834Z,100446.59
2023-04-10T06:07:49.966Z,100453.28
2023-04-10T06:10:18.313Z,100453.44
2023-04-10T06:12:47.026Z,100465.03
2023-04-10T06:15:15.033Z,100456.50
2023-04-10T06:17:44.479Z,100460.63
2023-04-10T06:20:14.560Z,100457.81
2023-04-10T06:22:42.695Z,100456.63
2023-04-10T06:25:11.591Z,100456.78
2023-04-10T06:27:39.980Z,100447.88
2023-04-10T06:30:09.988Z,100451.41
2023-04-10T06:32:38.649Z,100455.97
2023-04-10T06:35:07.951Z,100466.72
2023-04-10T06:37:37.652Z,100455.13
2023-04-10T06:40:08.855Z,100452.50
2023-04-10T06:42:37.824Z,100440.84
2023-04-10T06:45:06.994Z,100446.31
2023-04-10T06:47:35.818Z,100450.91
2023-04-10T06:50:04.296Z,100440.91
2023-04-10T06:52:33.996Z,100450.13
2023-04-10T06:55:03.592Z,100433.81
2023-04-10T06:57:33.003Z,100449.34
2023-04-10T07:00:02.015Z,100449.22
2023-04-10T07:02:31.187Z,100432.38
2023-04-10T07:04:59.424Z,100444.84
2023-04-10T07:07:30.038Z,100437.47
2023-04-10T07:09:58.701Z,100437.16
2023-04-10T07:12:29.438Z,100431.63
2023-04-10T07:14:57.502Z,100424.75
2023-04-10T07:17:26.231Z,100427.44
2023-04-10T07:19:58.992Z,100442.16
2023-04-10T07:22:31.534Z,100434.94
2023-04-10T07:25:01.651Z,100441.16
2023-04-10T07:27:31.369Z,100445.38
2023-04-10T07:29:59.773Z,100442.25
2023-04-10T07:32:28.525Z,100441.91
2023-04-10T07:34:59.694Z,100446.63
2023-04-10T07:37:27.848Z,100457.66
2023-04-10T07:39:56.319Z,100448.13
2023-04-10T07:42:25.156Z,100439.94
2023-04-10T07:44:54.834Z,100424.88
2023-04-10T07:47:25.324Z,100431.47
2023-04-10T07:49:53.654Z,100433.63
2023-04-10T07:52:21.699Z,100433.78
2023-04-10T07:55:05.248Z,100428.50
2023-04-10T07:57:33.632Z,100437.09
2023-04-10T08:00:06.984Z,100428.25
2023-04-10T08:02:37.560Z,100435.38
2023-04-10T08:05:06.324Z,100436.84
2023-04-10T08:07:36.567Z,100424.63
2023-04-10T08:10:04.950Z,100425.38
2023-04-10T08:12:38.362Z,100432.69
2023-04-10T08:15:09.041Z,100441.63
2023-04-10T08:17:39.832Z,100427.09
2023-04-10T08:20:13.791Z,100427.28
2023-04-10T08:22:42.903Z,100437.28
2023-04-10T08:25:11.704Z,100429.25
2023-04-10T08:27:40.514Z,100425.56
2023-04-10T08:30:11.107Z,100424.94
2023-04-10T08:32:42.688Z,100432.00
2023-04-10T08:35:11.049Z,100424.28
2023-04-10T08:37:39.342Z,100421.28
2023-04-10T08:40:08.612Z,100432.38
2023-04-10T08:42:37.568Z,100420.22
2023-04-10T08:45:06.095Z,100433.03
2023-04-10T08:47:37.998Z,100430.81
2023-04-10T08:50:09.044Z,100422.56
2023-04-10T08:52:44.952Z,100412.09
2023-04-10T08:55:17.357Z,100422.34
2023-04-10T08:57:54.363Z,100420.78
2023-04-10T09:00:31.652Z,100434.09
2023-04-10T09:03:03.152Z,100418.09
2023-04-10T09:05:31.781Z,100396.66
2023-04-10T09:07:59.944Z,100405.09
2023-04-10T09:10:28.230Z,100421.91
2023-04-10T09:12:56.771Z,100408.81
2023-04-10T09:15:25.137Z,100416.09
2023-04-10T09:17:58.018Z,100425.06
2023-04-10T09:20:30.019Z,100442.41
2023-04-10T09:22:58.575Z,100446.47
2023-04-10T09:25:34.934Z,100433.53
2023-04-10T09:28:09.329Z,100443.50
2023-04-10T09:30:40.604Z,100425.69
2023-04-10T09:33:27.602Z,100452.09
2023-04-10T09:36:00.048Z,100454.78
2023-04-10T09:38:28.135Z,100461.34
2023-04-10T09:41:08.020Z,100454.78
2023-04-10T09:43:36.711Z,100431.56
2023-04-10T09:46:05.092Z,100413.06
2023-04-10T09:48:33.182Z,100440.97
2023-04-10T09:51:03.289Z,100458.84
2023-04-10T09:53:31.596Z,100489.97
2023-04-10T09:56:00.086Z,100442.31
2023-04-10T09:58:34.880Z,100452.09
2023-04-10T10:01:03.252Z,100439.97
2023-04-10T10:03:31.607Z,100454.81
2023-04-10T10:06:02.367Z,100449.91
2023-04-10T10:08:34.882Z,100473.31
2023-04-10T10:11:10.208Z,100474.16
2023-04-10T10:13:45.757Z,100495.03
2023-04-10T10:16:19.410Z,100487.13
2023-04-10T10:18:57.849Z,100470.28
2023-04-10T10:21:28.377Z,100473.28
2023-04-10T10:24:00.476Z,100468.28
2023-04-10T10:26:29.514Z,100535.66
2023-04-10T10:28:59.394Z,100485.47
2023-04-10T10:31:32.747Z,100500.28
2023-04-10T10:34:05.742Z,100491.91
2023-04-10T10:36:33.963Z,100511.44
2023-04-10T10:39:18.755Z,100487.19
2023-04-10T10:41:54.452Z,100493.25
2023-04-10T10:44:31.237Z,100504.88
2023-04-10T10:47:08.798Z,100545.25
2023-04-10T10:49:57.431Z,100491.16
2023-04-10T10:52:48.177Z,100525.16
2023-04-10T10:55:36.247Z,100510.34
2023-04-10T10:58:08.253Z,100502.63
2023-04-10T11:01:10.771Z,100506.81
2023-04-10T11:03:39.649Z,100507.97
2023-04-10T11:06:09.886Z,100527.97
2023-04-10T11:08:46.160Z,100504.88
2023-04-10T11:11:18.745Z,100497.28
2023-04-10T11:14:19.187Z,100489.38
2023-04-10T11:16:49.008Z,100503.13
2023-04-10T11:19:22.732Z,100502.63
2023-04-10T11:22:09.331Z,100491.69
2023-04-10T11:24:54.237Z,100525.69
2023-04-10T11:27:44.947Z,100508.53
2023-04-10T11:30:35.679Z,100490.91
2023-04-10T11:33:05.588Z,100542.31
2023-04-10T11:35:34.902Z,100516.78
2023-04-10T11:38:17.336Z,100488.34
2023-04-10T11:40:55.980Z,100506.53
2023-04-10T11:43:25.656Z,100503.88
2023-04-10T11:46:01.677Z,100513.66
2023-04-10T11:48:30.507Z,100504.25
2023-04-10T11:51:00.141Z,100512.03
2023-04-10T11:53:30.421Z,100525.00
2023-04-10T11:55:59.006Z,100513.41
2023-04-10T11:58:30.684Z,100515.13
2023-04-10T12:01:03.070Z,100513.00
2023-04-10T12:03:40.198Z,100521.47
2023-04-10T12:06:10.784Z,100514.56
2023-04-10T12:08:40.488Z,100539.91
2023-04-10T12:11:10.162Z,100526.75
2023-04-10T12:13:40.295Z,100560.31
2023-04-10T12:16:12.037Z,100533.47
2023-04-10T12:18:40.643Z,100575.94
2023-04-10T12:21:09.342Z,100541.72
2023-04-10T12:23:40.232Z,100578.44
2023-04-10T12:26:14.358Z,100528.75
2023-04-10T12:28:52.373Z,100547.25
2023-04-10T12:31:28.275Z,100556.38
2023-04-10T12:33:58.125Z,100556.00
2023-04-10T12:36:29.436Z,100565.97
2023-04-10T12:38:58.357Z,100564.75
2023-04-10T12:41:27.706Z,100584.97
2023-04-10T12:44:10.541Z,100537.75
2023-04-10T12:46:39.185Z,100559.13
2023-04-10T12:49:11.703Z,100530.88
2023-04-10T12:51:43.614Z,100587.22
2023-04-10T12:54:12.403Z,100552.16
2023-04-10T12:56:44.089Z,100535.69
2023-04-10T12:59:13.679Z,100544.31
2023-04-10T13:01:41.894Z,100534.88
2023-04-10T13:04:10.103Z,100519.69
2023-04-10T13:06:44.327Z,100528.13
2023-04-10T13:09:13.308Z,100526.78
2023-04-10T13:11:45.915Z,100525.91
2023-04-10T13:14:17.299Z,100551.22
2023-04-10T13:16:45.464Z,100539.28
2023-04-10T13:19:14.154Z,100516.31
2023-04-10T13:21:42.129Z,100547.38
2023-04-10T13:24:10.410Z,100520.19
2023-04-10T13:26:38.527Z,100544.66
2023-04-10T13:29:07.055Z,100545.50
2023-04-10T13:31:36.774Z,100567.25
2023-04-10T13:34:06.150Z,100607.09
2023-04-10T13:36:37.483Z,100549.69
2023-04-10T13:39:05.902Z,100559.16
2023-04-10T13:41:34.155Z,100596.63
2023-04-10T13:44:02.329Z,100594.56
2023-04-10T13:46:30.327Z,100571.75
2023-04-10T13:48:59.988Z,100606.22
2023-04-10T13:51:29.821Z,100594.44
2023-04-10T13:53:58.031Z,100578.41
2023-04-10T13:56:26.781Z,100605.06
2023-04-10T13:58:55.217Z,100613.13
2023-04-10T14:01:26.565Z,100587.97
2023-04-10T14:03:54.764Z,100580.00
2023-04-10T14:06:37.028Z,100593.84
2023-04-10T14:09:15.538Z,100582.63
2023-04-10T14:11:59.559Z,100574.72
2023-04-10T14:14:28.067Z,100587.75
2023-04-10T14:16:57.637Z,100577.94
2023-04-10T14:19:28.346Z,100576.72
2023-04-10T14:22:09.058Z,100589.69
2023-04-10T14:24:37.323Z,100612.72
2023-04-10T14:27:06.933Z,100597.19
2023-04-10T14:29:42.750Z,100579.03
2023-04-10T14:32:23.865Z,100571.25
2023-04-10T14:34:52.773Z,100577.03
2023-04-10T14:37:22.550Z,100611.69
2023-04-10T14:39:51.764Z,100566.94
2023-04-10T14:42:19.990Z,100565.47
2023-04-10T14:44:48.852Z,100561.38
2023-04-10T14:47:17.495Z,100574.94
2023-04-10T14:49:52.049Z,100582.50
2023-04-10T14:52:21.935Z,100577.31
2023-04-10T14:54:51.432Z,100562.28
2023-04-10T14:57:19.643Z,100565.13
2023-04-10T14:59:47.879Z,100557.78
2023-04-10T15:02:16.382Z,100576.41
2023-04-10T15:04:47.322Z,100589.50
2023-04-10T15:07:16.092Z,100580.44
2023-04-10T15:09:46.770Z,100607.75
2023-04-10T15:12:15.172Z,100611.50
2023-04-10T15:14:43.558Z,100589.72
2023-04-10T15:17:11.563Z,100589.19
2023-04-10T15:19:39.970Z,100566.91
2023-04-10T15:22:15.177Z,100577.25
2023-04-10T15:24:49.965Z,100599.22
2023-04-10T15:27:22.486Z,100587.72
2023-04-10T15:29:50.955Z,100581.00
2023-04-10T15:32:19.462Z,100587.38
2023-04-10T15:34:47.608Z,100597.75
2023-04-10T15:37:15.971Z,100585.31
2023-04-10T15:39:44.076Z,100591.31
2023-04-10T15:42:12.780Z,100593.56
2023-04-10T15:44:42.505Z,100584.00
2023-04-10T15:47:10.572Z,100593.47
2023-04-10T15:49:39.425Z,100576.16
2023-04-10T15:52:08.031Z,100589.50
2023-04-10T15:54:36.619Z,100573.97
2023-04-10T15:57:05.038Z,100593.19
2023-04-10T15:59:34.474Z,100580.69
2023-04-10T16:02:04.571Z,100596.56
2023-04-10T16:04:32.944Z,100596.50
2023-04-10T16:07:02.750Z,100587.66
2023-04-10T16:09:31.495Z,100577.75
2023-04-10T16:11:59.805Z,100570.75
2023-04-10T16:14:28.224Z,100586.63
2023-04-10T16:16:59.446Z,100578.69
2023-04-10T16:19:31.479Z,100603.88
2023-04-10T16:22:00.357Z,100610.38
2023-04-10T16:24:30.758Z,100593.75
2023-04-10T16:26:59.018Z,100611.34
2023-04-10T16:29:27.398Z,100595.16
2023-04-10T16:31:56.116Z,100649.19
2023-04-10T16:34:37.175Z,100651.28
2023-04-10T16:37:07.126Z,100651.78
2023-04-10T16:39:35.644Z,100613.97
2023-04-10T16:42:04.967Z,100623.72
2023-04-10T16:44:33.894Z,100618.34
2023-04-10T16:47:02.278Z,100623.75
2023-04-10T16:49:30.913Z,100633.16
2023-04-10T16:51:59.066Z,100626.28
2023-04-10T16:54:28.778Z,100624.88
2023-04-10T16:56:57.209Z,100630.38
2023-04-10T16:59:25.853Z,100625.09
2023-04-10T17:01:55.465Z,100658.75
2023-04-10T17:04:24.056Z,100647.78
2023-04-10T17:06:52.572Z,100643.47
2023-04-10T17:09:21.562Z,100647.19
2023-04-10T17:11:53.446Z,100643.97
2023-04-10T17:14:21.860Z,100649.78
2023-04-10T17:16:50.003Z,100647.25
2023-04-10T17:19:18.679Z,100649.91
2023-04-10T17:21:46.682Z,100653.59
2023-04-10T17:24:14.722Z,100660.75
2023-04-10T17:26:42.929Z,100681.44
2023-04-10T17:29:12.462Z,100655.34
2023-04-10T17:31:41.805Z,100653.66
2023-04-10T17:34:10.086Z,100661.97
2023-04-10T17:36:39.343Z,100657.31
2023-04-10T17:39:07.897Z,100649.09
2023-04-10T17:41:36.075Z,100681.16
2023-04-10T17:44:05.786Z,100653.94
2023-04-10T17:46:35.847Z,100655.44
2023-04-10T17:49:07.904Z,100647.34
2023-04-10T17:51:35.972Z,100678.28
2023-04-10T17:54:33.852Z,100648.97
2023-04-10T17:57:03.824Z,100676.94
2023-04-10T17:59:32.345Z,100668.75
2023-04-10T18:02:02.579Z,100680.50
2023-04-10T18:04:32.013Z,100675.69
2023-04-10T18:07:00.346Z,100683.78
2023-04-10T18:09:32.779Z,100657.25
2023-04-10T18:12:01.554Z,100661.22
2023-04-10T18:14:33.138Z,100664.81
2023-04-10T18:17:03.000Z,100663.50
2023-04-10T18:19:31.633Z,100655.16
2023-04-10T18:22:02.602Z,100688.78
2023-04-10T18:24:31.000Z,100668.72
2023-04-10T18:26:59.159Z,100697.47
2023-04-10T18:29:27.616Z,100674.00
2023-04-10T18:31:55.849Z,100675.34
2023-04-10T18:34:25.843Z,100680.31
2023-04-10T18:36:55.738Z,100678.06
2023-04-10T18:39:24.162Z,100675.16
2023-04-10T18:41:52.299Z,100672.91
2023-04-10T18:44:20.358Z,100688.88
2023-04-10T18:46:53.985Z,100707.00
2023-04-10T18:49:31.316Z,100699.56
2023-04-10T18:51:59.382Z,100695.31
2023-04-10T18:54:28.212Z,100711.44
2023-04-10T18:56:57.990Z,100715.13
2023-04-10T18:59:26.129Z,100715.00
2023-04-10T19:01:54.292Z,100710.78
2023-04-10T19:04:22.523Z,100719.41
2023-04-10T19:06:52.117Z,100757.09
2023-04-10T19:09:20.260Z,100744.84
2023-04-10T19:11:48.392Z,100751.47
2023-04-10T19:14:16.608Z,100752.47
2023-04-10T19:16:44.806Z,100770.41
2023-04-10T19:19:13.097Z,100769.56
2023-04-10T19:21:41.652Z,100762.19
2023-04-10T19:24:12.549Z,100756.38
2023-04-10T19:26:41.204Z,100781.22
2023-04-10T19:29:10.115Z,100785.06
2023-04-10T19:31:38.179Z,100795.63
2023-04-10T19:34:09.397Z,100810.31
2023-04-10T19:36:38.562Z,100825.69
2023-04-10T19:39:06.910Z,100797.47
2023-04-10T19:41:41.809Z,100788.56
2023-04-10T19:44:10.792Z,100803.09
2023-04-10T19:46:39.134Z,100788.97
2023-04-10T19:49:11.642Z,100791.38
2023-04-10T19:51:39.792Z,100781.75
2023-04-10T19:54:08.383Z,100778.94
2023-04-10T19:56:38.308Z,100782.56
2023-04-10T19:59:06.532Z,100774.81
2023-04-10T20:01:35.590Z,100786.25
2023-04-10T20:04:03.832Z,100809.38
2023-04-10T20:06:31.995Z,100773.69
2023-04-10T20:09:00.134Z,100795.66
2023-04-10T20:11:30.775Z,100788.72
2023-04-10T20:14:00.410Z,100802.00
2023-04-10T20:16:28.625Z,100825.69
2023-04-10T20:18:57.513Z,100804.09
2023-04-10T20:21:26.208Z,100810.16
2023-04-10T20:23:57.762Z,100822.72
2023-04-10T20:26:26.983Z,100818.81
2023-04-10T20:28:55.593Z,100823.19
2023-04-10T20:31:25.847Z,100802.59
2023-04-10T20:33:54.558Z,100796.81
2023-04-10T20:36:22.920Z,100806.44
2023-04-10T20:38:51.135Z,100815.34
2023-04-10T20:41:19.329Z,100837.03
2023-04-10T20:43:47.686Z,100823.09
2023-04-10T20:46:15.852Z,100834.50
2023-04-10T20:48:45.526Z,100833.66
2023-04-10T20:51:13.821Z,100846.22
2023-04-10T20:53:42.014Z,100851.25
2023-04-10T20:56:10.910Z,100851.38
2023-04-10T20:58:39.148Z,100858.72
2023-04-10T21:01:10.556Z,100852.59
2023-04-10T21:03:39.121Z,100867.59
2023-04-10T21:06:11.412Z,100857.53
2023-04-10T21:08:39.719Z,100883.63
2023-04-10T21:11:08.596Z,100884.88
2023-04-10T21:13:38.495Z,100911.66
2023-04-10T21:16:08.207Z,100908.84
2023-04-10T21:18:36.474Z,100884.63
2023-04-10T21:21:07.168Z,100891.22
2023-04-10T21:23:41.567Z,100878.66
2023-04-10T21:26:10.278Z,100878.66
2023-04-10T21:28:38.671Z,100905.59
2023-04-10T21:31:06.850Z,100891.47
2023-04-10T21:33:34.925Z,100893.06
2023-04-10T21:36:02.989Z,100888.22
2023-04-10T21:38:31.147Z,100891.47
2023-04-10T21:41:03.584Z,100905.16
2023-04-10T21:43:31.990Z,100891.31
2023-04-10T21:46:02.169Z,100897.38
2023-04-10T21:48:31.351Z,100910.75
2023-04-10T21:50:59.454Z,100911.34
2023-04-10T21:53:27.604Z,100906.56
2023-04-10T21:55:55.701Z,100904.31
2023-04-10T21:58:25.301Z,100906.56
2023-04-10T22:00:55.171Z,100922.53
2023-04-10T22:03:24.172Z,100923.78
2023-04-10T22:05:52.484Z,100928.28
2023-04-10T22:08:22.180Z,100922.94
2023-04-10T22:10:51.404Z,100920.41
2023-04-10T22:13:30.335Z,100941.84
2023-04-10T22:16:02.506Z,100914.81
2023-04-10T22:18:30.779Z,100920.41
2023-04-10T22:20:59.230Z,100933.38
2023-04-10T22:23:27.405Z,100919.19
2023-04-10T22:25:55.508Z,100914.56
2023-04-10T22:28:23.789Z,100911.41
2023-04-10T22:30:51.876Z,100915.06
2023-04-10T22:33:21.521Z,100909.00
2023-04-10T22:35:49.524Z,100912.84
2023-04-10T22:38:17.610Z,100935.06
2023-04-10T22:40:45.688Z,100932.06
2023-04-10T22:43:13.828Z,100919.13
2023-04-10T22:45:43.573Z,100918.88
2023-04-10T22:48:11.773Z,100919.81
2023-04-10T22:50:41.370Z,100917.13
2023-04-10T22:53:11.670Z,100913.25
2023-04-10T22:55:40.125Z,100934.44
2023-04-10T22:58:08.902Z,100928.22
2023-04-10T23:00:37.158Z,100927.34
2023-04-10T23:03:05.534Z,100915.19
2023-04-10T23:05:34.385Z,100923.13
2023-04-10T23:08:04.093Z,100926.50
2023-04-10T23:10:32.138Z,100919.81
2023-04-10T23:13:00.174Z,100934.44
2023-04-10T23:15:28.151Z,100926.81
2023-04-10T23:17:56.424Z,100932.28
2023-04-10T23:20:24.619Z,100929.97
2023-04-10T23:22:52.976Z,100938.72
2023-04-10T23:25:22.895Z,100937.16
2023-04-10T23:27:52.689Z,100946.88
2023-04-10T23:30:20.729Z,100937.03
2023-04-10T23:32:48.930Z,100945.69
2023-04-10T23:35:17.258Z,100931.78
2023-04-10T23:37:45.364Z,100930.94
2023-04-10T23:40:14.225Z,100950.44
2023-04-10T23:42:45.230Z,100944.34
2023-04-10T23:45:13.971Z,100937.16
2023-04-10T23:47:42.048Z,100952.13
2023-04-10T23:50:11.081Z,100938.84
2023-04-10T23:52:39.129Z,100961.50
2023-04-10T23:55:08.093Z,100962.72
2023-04-10T23:57:36.170Z,100964.91
